Terminal Aerodrome Forecast
Issued by NWS Hastings, NE

Home | Current Version | Previous Version | Text Only | Print | Product List | Glossary On
Versions: 1 2 3 4 5 6 7 8 9 10 11 12
916
FTUS45 KGID 101120
TAFEAR
TAF
KEAR 101120Z 1012/1112 12007KT P6SM BKN040
     FM101700 14014KT P6SM SCT015 BKN040
     FM110200 15010KT P6SM OVC025
     FM110500 15010KT P6SM OVC015
      AMD LTD TO CLD VIS AND WIND=

USA.gov is the U.S. government's official web portal to all federal, state and local government web resources and services.